Terminal Aerodrome Forecast
Issued by NWS

Home | Current Version | Previous Version | Text Only | Print | Product List | Glossary On
Versions: 1 2 3 4 5 6 7 8 9 10 11 12
000
FTUS42 KGSP 242329
TAFAND
TAF
KAND 242329Z 2500/2524 13006KT P6SM SCT050
     FM250900 10004KT P6SM SCT017 OVC024
     FM251200 07004KT P6SM SCT010 OVC017
     FM251500 11004KT P6SM BKN030
     FM251700 14004KT P6SM BKN040 PROB30 2519/2524 4SM TSRA
      BKN030CB=

USA.gov is the U.S. government's official web portal to all federal, state and local government web resources and services.